Terminal Aerodrome Forecast
Issued by NWS Duluth, MN

Home | Current Version | Previous Version | Text Only | Print | Product List | Glossary On
Versions: 1 2 3 4 5 6 7 8 9 10 11 12 13 14 15 16 17 18 19 20 21 22 23 24 25
000
FTUS43 KDLH 241100
TAFDLH
TAF
KDLH 241132Z 2412/2512 VRB03KT P6SM BKN060
     FM241400 16004KT P6SM SCT060
     FM241700 20007KT P6SM SCT050
     FM250200 12005KT P6SM BKN100
     FM250900 12006KT P6SM BKN050=

USA.gov is the U.S. government's official web portal to all federal, state and local government web resources and services.